sensor_id;sensor_type;location;lat;lon;timestamp;P1;durP1;ratioP1;P2;durP2;ratioP2
15381;SDS011;7789;51.364;12.358;2022-12-18T00:00:16;48.67;;;27.17;;
15381;SDS011;7789;51.364;12.358;2022-12-18T00:05:26;47.53;;;27.13;;
15381;SDS011;7789;51.364;12.358;2022-12-18T00:10:37;44.20;;;25.50;;
15381;SDS011;7789;51.364;12.358;2022-12-18T00:15:48;48.90;;;26.90;;
15381;SDS011;7789;51.364;12.358;2022-12-18T00:21:08;45.57;;;26.77;;
15381;SDS011;7789;51.364;12.358;2022-12-18T00:26:14;50.70;;;25.40;;
15381;SDS011;7789;51.364;12.358;2022-12-18T00:37:11;47.33;;;27.00;;
15381;SDS011;7789;51.364;12.358;2022-12-18T00:42:25;45.50;;;23.17;;
15381;SDS011;7789;51.364;12.358;2022-12-18T00:48:09;52.80;;;26.53;;
15381;SDS011;7789;51.364;12.358;2022-12-18T00:53:19;41.40;;;24.77;;
15381;SDS011;7789;51.364;12.358;2022-12-18T00:58:32;43.30;;;24.60;;
15381;SDS011;7789;51.364;12.358;2022-12-18T01:03:44;43.13;;;24.90;;
15381;SDS011;7789;51.364;12.358;2022-12-18T01:08:49;42.53;;;23.33;;
15381;SDS011;7789;51.364;12.358;2022-12-18T01:14:03;39.03;;;21.37;;
15381;SDS011;7789;51.364;12.358;2022-12-18T01:19:15;46.07;;;24.50;;
15381;SDS011;7789;51.364;12.358;2022-12-18T01:24:31;39.77;;;21.43;;
15381;SDS011;7789;51.364;12.358;2022-12-18T01:29:47;43.60;;;21.73;;
15381;SDS011;7789;51.364;12.358;2022-12-18T01:35:01;36.97;;;20.60;;
15381;SDS011;7789;51.364;12.358;2022-12-18T01:40:16;39.13;;;23.30;;
15381;SDS011;7789;51.364;12.358;2022-12-18T01:45:29;45.43;;;22.73;;
15381;SDS011;7789;51.364;12.358;2022-12-18T01:50:48;43.03;;;23.00;;
15381;SDS011;7789;51.364;12.358;2022-12-18T01:55:55;43.27;;;23.10;;
15381;SDS011;7789;51.364;12.358;2022-12-18T02:01:04;42.57;;;21.80;;
15381;SDS011;7789;51.364;12.358;2022-12-18T02:06:15;38.93;;;21.37;;
15381;SDS011;7789;51.364;12.358;2022-12-18T02:11:34;42.13;;;21.77;;
15381;SDS011;7789;51.364;12.358;2022-12-18T02:16:52;38.63;;;22.30;;
15381;SDS011;7789;51.364;12.358;2022-12-18T02:22:06;42.23;;;20.53;;
15381;SDS011;7789;51.364;12.358;2022-12-18T02:27:26;39.17;;;20.77;;
15381;SDS011;7789;51.364;12.358;2022-12-18T02:32:38;39.43;;;19.43;;
15381;SDS011;7789;51.364;12.358;2022-12-18T02:37:55;35.37;;;19.27;;
15381;SDS011;7789;51.364;12.358;2022-12-18T02:43:14;37.00;;;19.23;;
15381;SDS011;7789;51.364;12.358;2022-12-18T02:48:27;33.90;;;18.93;;
15381;SDS011;7789;51.364;12.358;2022-12-18T02:53:56;35.77;;;18.57;;
15381;SDS011;7789;51.364;12.358;2022-12-18T02:59:09;35.03;;;17.97;;
15381;SDS011;7789;51.364;12.358;2022-12-18T03:04:30;32.07;;;16.37;;
15381;SDS011;7789;51.364;12.358;2022-12-18T03:09:48;34.13;;;17.57;;
15381;SDS011;7789;51.364;12.358;2022-12-18T03:14:59;33.53;;;17.73;;
15381;SDS011;7789;51.364;12.358;2022-12-18T03:20:15;32.10;;;18.03;;
15381;SDS011;7789;51.364;12.358;2022-12-18T03:25:24;33.90;;;16.93;;
15381;SDS011;7789;51.364;12.358;2022-12-18T03:30:41;31.80;;;17.03;;
15381;SDS011;7789;51.364;12.358;2022-12-18T03:36:18;31.63;;;16.43;;
15381;SDS011;7789;51.364;12.358;2022-12-18T03:41:31;36.40;;;17.17;;
15381;SDS011;7789;51.364;12.358;2022-12-18T03:46:47;32.57;;;17.97;;
15381;SDS011;7789;51.364;12.358;2022-12-18T03:52:05;31.87;;;18.73;;
15381;SDS011;7789;51.364;12.358;2022-12-18T03:57:13;28.93;;;17.70;;
15381;SDS011;7789;51.364;12.358;2022-12-18T04:02:43;30.53;;;16.60;;
15381;SDS011;7789;51.364;12.358;2022-12-18T04:08:03;31.77;;;16.97;;
15381;SDS011;7789;51.364;12.358;2022-12-18T04:13:24;31.97;;;16.23;;
15381;SDS011;7789;51.364;12.358;2022-12-18T04:18:36;29.67;;;16.73;;
15381;SDS011;7789;51.364;12.358;2022-12-18T04:23:53;29.87;;;15.07;;
15381;SDS011;7789;51.364;12.358;2022-12-18T04:29:03;27.10;;;14.80;;
15381;SDS011;7789;51.364;12.358;2022-12-18T04:34:23;30.73;;;18.20;;
15381;SDS011;7789;51.364;12.358;2022-12-18T04:39:40;28.47;;;15.37;;
15381;SDS011;7789;51.364;12.358;2022-12-18T04:44:55;25.33;;;14.00;;
15381;SDS011;7789;51.364;12.358;2022-12-18T04:55:28;22.30;;;13.57;;
15381;SDS011;7789;51.364;12.358;2022-12-18T05:00:34;21.07;;;12.20;;
15381;SDS011;7789;51.364;12.358;2022-12-18T05:05:54;19.87;;;11.43;;
15381;SDS011;7789;51.364;12.358;2022-12-18T05:11:06;24.60;;;13.13;;
15381;SDS011;7789;51.364;12.358;2022-12-18T05:16:15;20.33;;;12.20;;
15381;SDS011;7789;51.364;12.358;2022-12-18T05:21:26;21.90;;;11.80;;
15381;SDS011;7789;51.364;12.358;2022-12-18T05:27:00;19.60;;;11.87;;
15381;SDS011;7789;51.364;12.358;2022-12-18T05:32:22;18.50;;;11.13;;
15381;SDS011;7789;51.364;12.358;2022-12-18T05:37:41;23.17;;;11.60;;
15381;SDS011;7789;51.364;12.358;2022-12-18T05:42:58;19.77;;;12.00;;
15381;SDS011;7789;51.364;12.358;2022-12-18T05:48:11;21.00;;;10.87;;
15381;SDS011;7789;51.364;12.358;2022-12-18T05:53:38;17.80;;;9.87;;
15381;SDS011;7789;51.364;12.358;2022-12-18T05:58:50;18.70;;;10.77;;
15381;SDS011;7789;51.364;12.358;2022-12-18T06:03:59;15.67;;;9.70;;
15381;SDS011;7789;51.364;12.358;2022-12-18T06:09:16;16.57;;;9.80;;
15381;SDS011;7789;51.364;12.358;2022-12-18T06:14:25;16.73;;;9.70;;
15381;SDS011;7789;51.364;12.358;2022-12-18T06:19:57;15.87;;;9.40;;
15381;SDS011;7789;51.364;12.358;2022-12-18T06:25:17;19.17;;;10.37;;
15381;SDS011;7789;51.364;12.358;2022-12-18T06:30:22;17.87;;;9.73;;
15381;SDS011;7789;51.364;12.358;2022-12-18T06:35:28;15.97;;;9.67;;
15381;SDS011;7789;51.364;12.358;2022-12-18T06:40:49;14.30;;;8.73;;
15381;SDS011;7789;51.364;12.358;2022-12-18T06:46:00;15.73;;;9.10;;
15381;SDS011;7789;51.364;12.358;2022-12-18T06:51:09;15.50;;;9.40;;
15381;SDS011;7789;51.364;12.358;2022-12-18T06:56:24;14.93;;;9.10;;
15381;SDS011;7789;51.364;12.358;2022-12-18T07:01:32;13.13;;;9.13;;
15381;SDS011;7789;51.364;12.358;2022-12-18T07:06:40;15.83;;;9.10;;
15381;SDS011;7789;51.364;12.358;2022-12-18T07:11:52;18.20;;;10.43;;
15381;SDS011;7789;51.364;12.358;2022-12-18T07:16:57;16.43;;;9.93;;
15381;SDS011;7789;51.364;12.358;2022-12-18T07:22:19;16.40;;;9.03;;
15381;SDS011;7789;51.364;12.358;2022-12-18T07:27:29;17.47;;;10.13;;
15381;SDS011;7789;51.364;12.358;2022-12-18T07:33:06;16.83;;;9.07;;
15381;SDS011;7789;51.364;12.358;2022-12-18T07:38:17;16.87;;;10.37;;
15381;SDS011;7789;51.364;12.358;2022-12-18T07:43:34;17.33;;;9.83;;
15381;SDS011;7789;51.364;12.358;2022-12-18T07:48:45;16.53;;;9.87;;
15381;SDS011;7789;51.364;12.358;2022-12-18T07:54:06;16.83;;;10.00;;
15381;SDS011;7789;51.364;12.358;2022-12-18T07:59:21;18.53;;;10.63;;
15381;SDS011;7789;51.364;12.358;2022-12-18T08:04:42;15.40;;;9.10;;
15381;SDS011;7789;51.364;12.358;2022-12-18T08:09:50;15.13;;;9.60;;
15381;SDS011;7789;51.364;12.358;2022-12-18T08:14:57;17.27;;;9.87;;
15381;SDS011;7789;51.364;12.358;2022-12-18T08:20:09;16.43;;;10.43;;
15381;SDS011;7789;51.364;12.358;2022-12-18T08:25:24;15.40;;;9.40;;
15381;SDS011;7789;51.364;12.358;2022-12-18T08:30:37;20.80;;;9.57;;
15381;SDS011;7789;51.364;12.358;2022-12-18T08:35:46;17.50;;;10.23;;
15381;SDS011;7789;51.364;12.358;2022-12-18T08:41:01;15.57;;;9.97;;
15381;SDS011;7789;51.364;12.358;2022-12-18T08:46:12;17.03;;;10.77;;
15381;SDS011;7789;51.364;12.358;2022-12-18T08:51:19;18.20;;;9.77;;
15381;SDS011;7789;51.364;12.358;2022-12-18T08:56:28;15.97;;;9.70;;
15381;SDS011;7789;51.364;12.358;2022-12-18T09:01:39;15.77;;;9.40;;
15381;SDS011;7789;51.364;12.358;2022-12-18T09:06:51;14.90;;;9.43;;
15381;SDS011;7789;51.364;12.358;2022-12-18T09:12:23;15.97;;;9.73;;
15381;SDS011;7789;51.364;12.358;2022-12-18T09:17:30;14.53;;;9.40;;
15381;SDS011;7789;51.364;12.358;2022-12-18T09:22:33;16.60;;;9.13;;
15381;SDS011;7789;51.364;12.358;2022-12-18T09:27:36;14.07;;;9.33;;
15381;SDS011;7789;51.364;12.358;2022-12-18T09:32:44;15.80;;;9.53;;
15381;SDS011;7789;51.364;12.358;2022-12-18T09:37:48;14.03;;;8.60;;
15381;SDS011;7789;51.364;12.358;2022-12-18T09:42:52;15.40;;;8.83;;
15381;SDS011;7789;51.364;12.358;2022-12-18T09:48:00;15.20;;;9.33;;
15381;SDS011;7789;51.364;12.358;2022-12-18T09:53:09;14.33;;;9.03;;
15381;SDS011;7789;51.364;12.358;2022-12-18T09:58:17;11.43;;;6.83;;
15381;SDS011;7789;51.364;12.358;2022-12-18T10:03:27;14.17;;;7.83;;
15381;SDS011;7789;51.364;12.358;2022-12-18T10:08:33;14.53;;;8.63;;
15381;SDS011;7789;51.364;12.358;2022-12-18T10:13:45;14.83;;;9.43;;
15381;SDS011;7789;51.364;12.358;2022-12-18T10:18:59;14.07;;;8.37;;
15381;SDS011;7789;51.364;12.358;2022-12-18T10:24:14;13.67;;;8.53;;
15381;SDS011;7789;51.364;12.358;2022-12-18T10:29:27;13.70;;;7.93;;
15381;SDS011;7789;51.364;12.358;2022-12-18T10:34:32;13.10;;;8.03;;
15381;SDS011;7789;51.364;12.358;2022-12-18T10:39:35;13.80;;;8.30;;
15381;SDS011;7789;51.364;12.358;2022-12-18T10:44:39;12.27;;;7.80;;
15381;SDS011;7789;51.364;12.358;2022-12-18T10:49:46;11.13;;;7.57;;
15381;SDS011;7789;51.364;12.358;2022-12-18T10:54:52;13.60;;;8.10;;
15381;SDS011;7789;51.364;12.358;2022-12-18T11:00:03;11.43;;;7.87;;
15381;SDS011;7789;51.364;12.358;2022-12-18T11:05:29;13.87;;;8.00;;
15381;SDS011;7789;51.364;12.358;2022-12-18T11:10:35;11.53;;;7.30;;
15381;SDS011;7789;51.364;12.358;2022-12-18T11:15:42;12.17;;;7.97;;
15381;SDS011;7789;51.364;12.358;2022-12-18T11:20:52;12.70;;;8.03;;
15381;SDS011;7789;51.364;12.358;2022-12-18T11:25:59;11.17;;;7.10;;
15381;SDS011;7789;51.364;12.358;2022-12-18T11:31:09;12.50;;;7.67;;
15381;SDS011;7789;51.364;12.358;2022-12-18T11:36:20;13.27;;;7.90;;
15381;SDS011;7789;51.364;12.358;2022-12-18T11:41:26;13.70;;;8.40;;
15381;SDS011;7789;51.364;12.358;2022-12-18T11:46:49;14.40;;;7.53;;
15381;SDS011;7789;51.364;12.358;2022-12-18T11:52:00;12.30;;;7.57;;
15381;SDS011;7789;51.364;12.358;2022-12-18T11:57:10;11.63;;;7.60;;
15381;SDS011;7789;51.364;12.358;2022-12-18T12:02:27;12.40;;;7.20;;
15381;SDS011;7789;51.364;12.358;2022-12-18T12:07:53;11.07;;;7.23;;
15381;SDS011;7789;51.364;12.358;2022-12-18T12:13:07;12.93;;;8.63;;
15381;SDS011;7789;51.364;12.358;2022-12-18T12:18:29;15.03;;;7.93;;
15381;SDS011;7789;51.364;12.358;2022-12-18T12:23:46;11.90;;;7.33;;
15381;SDS011;7789;51.364;12.358;2022-12-18T12:29:00;14.03;;;7.67;;
15381;SDS011;7789;51.364;12.358;2022-12-18T12:34:13;10.57;;;6.90;;
15381;SDS011;7789;51.364;12.358;2022-12-18T12:39:23;11.23;;;7.20;;
15381;SDS011;7789;51.364;12.358;2022-12-18T12:44:34;11.73;;;7.70;;
15381;SDS011;7789;51.364;12.358;2022-12-18T12:49:46;10.30;;;6.50;;
15381;SDS011;7789;51.364;12.358;2022-12-18T12:54:53;10.50;;;6.90;;
15381;SDS011;7789;51.364;12.358;2022-12-18T12:59:59;11.37;;;6.80;;
15381;SDS011;7789;51.364;12.358;2022-12-18T13:05:09;7.33;;;5.70;;
15381;SDS011;7789;51.364;12.358;2022-12-18T13:10:25;15.53;;;8.67;;
15381;SDS011;7789;51.364;12.358;2022-12-18T13:15:36;14.07;;;7.93;;
15381;SDS011;7789;51.364;12.358;2022-12-18T13:20:42;11.30;;;7.27;;
15381;SDS011;7789;51.364;12.358;2022-12-18T13:25:57;13.40;;;6.77;;
15381;SDS011;7789;51.364;12.358;2022-12-18T13:31:02;12.97;;;8.00;;
15381;SDS011;7789;51.364;12.358;2022-12-18T13:36:15;14.20;;;8.47;;
15381;SDS011;7789;51.364;12.358;2022-12-18T13:41:27;14.70;;;8.70;;
15381;SDS011;7789;51.364;12.358;2022-12-18T13:46:40;13.97;;;8.17;;
15381;SDS011;7789;51.364;12.358;2022-12-18T13:51:46;14.53;;;8.80;;
15381;SDS011;7789;51.364;12.358;2022-12-18T13:56:54;13.30;;;8.50;;
15381;SDS011;7789;51.364;12.358;2022-12-18T14:01:58;14.07;;;9.10;;
15381;SDS011;7789;51.364;12.358;2022-12-18T14:07:05;13.30;;;8.03;;
15381;SDS011;7789;51.364;12.358;2022-12-18T14:12:19;16.23;;;9.17;;
15381;SDS011;7789;51.364;12.358;2022-12-18T14:17:42;14.03;;;8.70;;
15381;SDS011;7789;51.364;12.358;2022-12-18T14:22:45;19.10;;;10.30;;
15381;SDS011;7789;51.364;12.358;2022-12-18T14:28:02;24.83;;;12.17;;
15381;SDS011;7789;51.364;12.358;2022-12-18T14:33:12;21.03;;;11.70;;
15381;SDS011;7789;51.364;12.358;2022-12-18T14:38:18;20.87;;;10.73;;
15381;SDS011;7789;51.364;12.358;2022-12-18T14:43:26;21.03;;;11.43;;
15381;SDS011;7789;51.364;12.358;2022-12-18T14:48:33;22.87;;;12.43;;
15381;SDS011;7789;51.364;12.358;2022-12-18T14:53:40;20.83;;;13.67;;
15381;SDS011;7789;51.364;12.358;2022-12-18T14:58:56;23.40;;;12.70;;
15381;SDS011;7789;51.364;12.358;2022-12-18T15:04:01;20.73;;;12.13;;
15381;SDS011;7789;51.364;12.358;2022-12-18T15:09:05;22.27;;;12.93;;
15381;SDS011;7789;51.364;12.358;2022-12-18T15:14:42;23.70;;;12.60;;
15381;SDS011;7789;51.364;12.358;2022-12-18T15:19:46;24.30;;;12.90;;
15381;SDS011;7789;51.364;12.358;2022-12-18T15:24:50;23.13;;;12.83;;
15381;SDS011;7789;51.364;12.358;2022-12-18T15:30:11;23.27;;;12.73;;
15381;SDS011;7789;51.364;12.358;2022-12-18T15:35:21;20.63;;;12.23;;
15381;SDS011;7789;51.364;12.358;2022-12-18T15:40:25;23.23;;;13.27;;
15381;SDS011;7789;51.364;12.358;2022-12-18T15:45:30;21.80;;;13.03;;
15381;SDS011;7789;51.364;12.358;2022-12-18T15:50:33;26.30;;;13.77;;
15381;SDS011;7789;51.364;12.358;2022-12-18T15:55:37;23.97;;;14.10;;
15381;SDS011;7789;51.364;12.358;2022-12-18T16:01:03;20.97;;;13.20;;
15381;SDS011;7789;51.364;12.358;2022-12-18T16:06:09;23.57;;;13.47;;
15381;SDS011;7789;51.364;12.358;2022-12-18T16:11:16;25.87;;;14.17;;
15381;SDS011;7789;51.364;12.358;2022-12-18T16:16:41;24.87;;;14.70;;
15381;SDS011;7789;51.364;12.358;2022-12-18T16:21:48;25.13;;;14.37;;
15381;SDS011;7789;51.364;12.358;2022-12-18T16:26:53;31.30;;;15.87;;
15381;SDS011;7789;51.364;12.358;2022-12-18T16:32:00;23.80;;;13.60;;
15381;SDS011;7789;51.364;12.358;2022-12-18T16:37:04;27.77;;;13.57;;
15381;SDS011;7789;51.364;12.358;2022-12-18T16:42:10;23.03;;;14.20;;
15381;SDS011;7789;51.364;12.358;2022-12-18T16:47:19;24.73;;;13.57;;
15381;SDS011;7789;51.364;12.358;2022-12-18T16:52:22;27.30;;;14.40;;
15381;SDS011;7789;51.364;12.358;2022-12-18T16:57:26;22.13;;;13.93;;
15381;SDS011;7789;51.364;12.358;2022-12-18T17:02:30;24.13;;;13.27;;
15381;SDS011;7789;51.364;12.358;2022-12-18T17:07:34;23.57;;;11.87;;
15381;SDS011;7789;51.364;12.358;2022-12-18T17:12:38;21.83;;;12.80;;
15381;SDS011;7789;51.364;12.358;2022-12-18T17:17:42;24.70;;;13.77;;
15381;SDS011;7789;51.364;12.358;2022-12-18T17:22:46;21.67;;;13.30;;
15381;SDS011;7789;51.364;12.358;2022-12-18T17:27:49;24.87;;;13.47;;
15381;SDS011;7789;51.364;12.358;2022-12-18T17:32:54;22.63;;;13.63;;
15381;SDS011;7789;51.364;12.358;2022-12-18T17:37:57;22.37;;;12.60;;
15381;SDS011;7789;51.364;12.358;2022-12-18T17:43:00;24.30;;;13.23;;
15381;SDS011;7789;51.364;12.358;2022-12-18T17:48:06;20.63;;;11.53;;
15381;SDS011;7789;51.364;12.358;2022-12-18T17:53:11;24.07;;;12.17;;
15381;SDS011;7789;51.364;12.358;2022-12-18T17:58:14;22.00;;;11.67;;
15381;SDS011;7789;51.364;12.358;2022-12-18T18:03:18;21.23;;;13.13;;
15381;SDS011;7789;51.364;12.358;2022-12-18T18:08:22;20.43;;;12.03;;
15381;SDS011;7789;51.364;12.358;2022-12-18T18:13:26;21.90;;;12.63;;
15381;SDS011;7789;51.364;12.358;2022-12-18T18:18:49;24.93;;;12.87;;
15381;SDS011;7789;51.364;12.358;2022-12-18T18:23:52;25.73;;;14.50;;
15381;SDS011;7789;51.364;12.358;2022-12-18T18:28:56;23.73;;;11.10;;
15381;SDS011;7789;51.364;12.358;2022-12-18T18:34:03;17.83;;;10.83;;
15381;SDS011;7789;51.364;12.358;2022-12-18T18:39:08;19.97;;;11.47;;
15381;SDS011;7789;51.364;12.358;2022-12-18T18:44:11;23.53;;;11.70;;
15381;SDS011;7789;51.364;12.358;2022-12-18T18:49:16;19.63;;;11.73;;
15381;SDS011;7789;51.364;12.358;2022-12-18T18:54:19;18.07;;;10.97;;
15381;SDS011;7789;51.364;12.358;2022-12-18T18:59:23;21.40;;;11.93;;
15381;SDS011;7789;51.364;12.358;2022-12-18T19:04:34;21.90;;;13.03;;
15381;SDS011;7789;51.364;12.358;2022-12-18T19:09:46;22.83;;;12.43;;
15381;SDS011;7789;51.364;12.358;2022-12-18T19:14:52;21.90;;;11.93;;
15381;SDS011;7789;51.364;12.358;2022-12-18T19:19:57;23.83;;;13.37;;
15381;SDS011;7789;51.364;12.358;2022-12-18T19:25:01;18.73;;;10.47;;
15381;SDS011;7789;51.364;12.358;2022-12-18T19:30:05;17.87;;;11.17;;
15381;SDS011;7789;51.364;12.358;2022-12-18T19:35:10;19.23;;;10.37;;
15381;SDS011;7789;51.364;12.358;2022-12-18T19:40:15;16.63;;;9.20;;
15381;SDS011;7789;51.364;12.358;2022-12-18T19:45:18;18.03;;;9.73;;
15381;SDS011;7789;51.364;12.358;2022-12-18T19:50:26;18.50;;;10.20;;
15381;SDS011;7789;51.364;12.358;2022-12-18T19:55:29;15.93;;;9.47;;
15381;SDS011;7789;51.364;12.358;2022-12-18T20:00:33;17.67;;;10.33;;
15381;SDS011;7789;51.364;12.358;2022-12-18T20:05:37;16.73;;;9.97;;
15381;SDS011;7789;51.364;12.358;2022-12-18T20:10:40;15.33;;;9.90;;
15381;SDS011;7789;51.364;12.358;2022-12-18T20:15:45;18.23;;;9.90;;
15381;SDS011;7789;51.364;12.358;2022-12-18T20:20:50;15.70;;;9.43;;
15381;SDS011;7789;51.364;12.358;2022-12-18T20:25:55;15.30;;;9.40;;
15381;SDS011;7789;51.364;12.358;2022-12-18T20:30:59;17.07;;;9.40;;
15381;SDS011;7789;51.364;12.358;2022-12-18T20:36:05;15.47;;;8.50;;
15381;SDS011;7789;51.364;12.358;2022-12-18T20:41:14;16.80;;;9.10;;
15381;SDS011;7789;51.364;12.358;2022-12-18T20:46:19;17.10;;;9.47;;
15381;SDS011;7789;51.364;12.358;2022-12-18T20:51:24;16.70;;;9.40;;
15381;SDS011;7789;51.364;12.358;2022-12-18T20:56:28;17.17;;;10.17;;
15381;SDS011;7789;51.364;12.358;2022-12-18T21:01:32;15.07;;;8.80;;
15381;SDS011;7789;51.364;12.358;2022-12-18T21:06:39;13.73;;;8.70;;
15381;SDS011;7789;51.364;12.358;2022-12-18T21:11:46;17.83;;;10.03;;
15381;SDS011;7789;51.364;12.358;2022-12-18T21:17:03;20.40;;;10.20;;
15381;SDS011;7789;51.364;12.358;2022-12-18T21:22:08;13.83;;;9.03;;
15381;SDS011;7789;51.364;12.358;2022-12-18T21:27:11;13.40;;;8.23;;
15381;SDS011;7789;51.364;12.358;2022-12-18T21:32:18;14.87;;;7.50;;
15381;SDS011;7789;51.364;12.358;2022-12-18T21:37:25;16.37;;;8.90;;
15381;SDS011;7789;51.364;12.358;2022-12-18T21:42:28;13.07;;;8.17;;
15381;SDS011;7789;51.364;12.358;2022-12-18T21:47:49;16.93;;;8.93;;
15381;SDS011;7789;51.364;12.358;2022-12-18T21:52:53;20.33;;;10.00;;
15381;SDS011;7789;51.364;12.358;2022-12-18T21:57:56;15.97;;;8.97;;
15381;SDS011;7789;51.364;12.358;2022-12-18T22:02:59;15.17;;;8.13;;
15381;SDS011;7789;51.364;12.358;2022-12-18T22:08:19;16.50;;;8.87;;
15381;SDS011;7789;51.364;12.358;2022-12-18T22:13:23;14.00;;;8.80;;
15381;SDS011;7789;51.364;12.358;2022-12-18T22:18:26;15.70;;;8.50;;
15381;SDS011;7789;51.364;12.358;2022-12-18T22:23:33;17.03;;;9.80;;
15381;SDS011;7789;51.364;12.358;2022-12-18T22:28:38;17.27;;;9.73;;
15381;SDS011;7789;51.364;12.358;2022-12-18T22:34:15;18.70;;;8.90;;
15381;SDS011;7789;51.364;12.358;2022-12-18T22:39:31;16.47;;;8.50;;
15381;SDS011;7789;51.364;12.358;2022-12-18T22:44:37;18.77;;;9.33;;
15381;SDS011;7789;51.364;12.358;2022-12-18T22:49:43;18.77;;;9.50;;
15381;SDS011;7789;51.364;12.358;2022-12-18T23:00:16;16.50;;;8.67;;
15381;SDS011;7789;51.364;12.358;2022-12-18T23:05:46;17.80;;;9.63;;
15381;SDS011;7789;51.364;12.358;2022-12-18T23:10:58;16.07;;;8.93;;
15381;SDS011;7789;51.364;12.358;2022-12-18T23:16:09;19.37;;;8.90;;
15381;SDS011;7789;51.364;12.358;2022-12-18T23:21:21;15.93;;;8.27;;
15381;SDS011;7789;51.364;12.358;2022-12-18T23:31:57;16.67;;;9.47;;
15381;SDS011;7789;51.364;12.358;2022-12-18T23:37:01;15.13;;;8.60;;
15381;SDS011;7789;51.364;12.358;2022-12-18T23:42:11;15.07;;;8.40;;
15381;SDS011;7789;51.364;12.358;2022-12-18T23:47:28;15.67;;;8.73;;
15381;SDS011;7789;51.364;12.358;2022-12-18T23:52:36;14.30;;;8.63;;
15381;SDS011;7789;51.364;12.358;2022-12-18T23:58:07;15.07;;;8.70;;
